Terminal Aerodrome Forecast
Issued by NWS

Home | Current Version | Previous Version | Text Only | Print | Product List | Glossary On
Versions: 1 2 3 4 5 6 7 8 9 10 11 12 13
136
FTUS42 KMLB 272331
TAFFPR
TAF
KFPR 272331Z 2800/2824 13010KT P6SM FEW035 SCT070 SCT250
     FM280400 18003KT P6SM FEW025 SCT250
     FM281400 21007KT P6SM SCT030 SCT250
     FM281800 15009KT P6SM VCTS SCT040CB=

USA.gov is the U.S. government's official web portal to all federal, state and local government web resources and services.